Time;durP1;ratioP1;P1;durP2;ratioP2;P2;SDS_P1;SDS_P2;PMS_P1;PMS_P2;Temp;Humidity;BMP_temperature;BMP_pressure;BME280_temperature;BME280_humidity;BME280_pressure;Samples;Min_cycle;Max_cycle;Signal;HPM_P1;HPM_P2
2021/08/14 00:00:40;;;;;;;1999.90;999.90;;;;;;;17.49;39.81;101633.63;4978341;28;99741;-72
2021/08/14 00:03:08;;;;;;;1999.90;999.90;;;;;;;17.53;39.79;101631.88;4985354;28;98983;-73
2021/08/14 00:05:36;;;;;;;1999.90;999.90;;;;;;;17.55;39.54;101628.28;5002593;28;97652;-73
2021/08/14 00:08:04;;;;;;;1999.90;999.90;;;;;;;17.56;39.66;101637.28;4982341;28;97740;-72
2021/08/14 00:10:33;;;;;;;1999.90;999.90;;;;;;;17.53;39.38;101640.84;4969270;28;100345;-72
2021/08/14 00:13:01;;;;;;;1999.90;999.90;;;;;;;17.46;39.59;101644.38;4976499;28;100503;-73
2021/08/14 00:15:29;;;;;;;1999.90;999.90;;;;;;;17.35;39.90;101642.47;4971102;28;96902;-73
2021/08/14 00:17:57;;;;;;;1999.90;999.90;;;;;;;17.24;40.04;101641.47;4989930;28;96948;-73
2021/08/14 00:20:25;;;;;;;1999.90;999.90;;;;;;;17.16;39.97;101637.84;4988650;28;97356;-73
2021/08/14 00:22:53;;;;;;;1999.90;999.90;;;;;;;17.02;40.20;101633.25;4990635;28;98587;-72
2021/08/14 00:25:21;;;;;;;1999.90;999.90;;;;;;;16.95;40.25;101638.56;4996814;28;96067;-73
2021/08/14 00:27:50;;;;;;;1999.90;999.90;;;;;;;16.97;40.34;101644.88;4997086;28;97732;-73
2021/08/14 00:30:18;;;;;;;1999.90;999.90;;;;;;;17.01;40.21;101644.00;5000575;28;99321;-74
2021/08/14 00:32:45;;;;;;;1999.90;999.90;;;;;;;17.06;40.09;101655.69;4997917;28;101001;-73
2021/08/14 00:35:14;;;;;;;1999.90;999.90;;;;;;;17.04;40.23;101660.16;4996151;28;97098;-73
2021/08/14 00:37:41;;;;;;;1999.90;999.90;;;;;;;17.02;40.00;101661.94;4992876;28;97031;-73
2021/08/14 00:40:11;;;;;;;1999.90;999.90;;;;;;;16.94;40.28;101663.69;5001364;28;99426;-73
2021/08/14 00:42:38;;;;;;;1999.90;999.90;;;;;;;16.95;40.05;101655.63;4993280;28;99277;-72
2021/08/14 00:45:09;;;;;;;1999.90;999.90;;;;;;;16.98;40.27;101660.13;4998128;28;97116;-73
2021/08/14 00:47:40;;;;;;;1999.90;999.90;;;;;;;17.01;40.10;101652.09;4985450;28;96942;-73
2021/08/14 00:50:09;;;;;;;1999.90;999.90;;;;;;;17.04;39.90;101662.84;4985284;28;99300;-73
2021/08/14 00:52:37;;;;;;;1999.90;999.90;;;;;;;17.00;40.17;101653.84;4986053;28;97615;-73
2021/08/14 00:55:05;;;;;;;1999.90;999.90;;;;;;;17.00;39.98;101653.84;4984379;28;97089;-73
2021/08/14 00:57:33;;;;;;;1999.90;999.90;;;;;;;16.98;39.88;101647.56;4986816;28;97983;-74
2021/08/14 01:00:01;;;;;;;1999.90;999.90;;;;;;;16.98;39.89;101654.75;4984136;28;97646;-73
2021/08/14 01:02:30;;;;;;;1999.90;999.90;;;;;;;16.94;39.80;101658.28;4985148;28;99310;-73
2021/08/14 01:04:58;;;;;;;1999.90;999.90;;;;;;;16.80;39.90;101655.47;4985766;28;97728;-73
2021/08/14 01:07:25;;;;;;;1999.90;999.90;;;;;;;16.69;40.17;101667.88;4985304;28;97955;-74
2021/08/14 01:09:53;;;;;;;1999.90;999.90;;;;;;;17.05;39.38;101662.84;4982671;28;100434;-74
2021/08/14 01:12:21;;;;;;;1999.90;999.90;;;;;;;17.17;39.46;101661.16;4983343;28;100399;-74
2021/08/14 01:14:50;;;;;;;1999.90;999.90;;;;;;;16.85;40.20;101650.16;4986380;28;97049;-74
2021/08/14 01:17:18;;;;;;;1999.90;999.90;;;;;;;16.76;40.24;101653.63;4985127;28;97113;-74
2021/08/14 01:19:48;;;;;;;1999.90;999.90;;;;;;;16.66;40.50;101656.19;4986095;28;97652;-73
2021/08/14 01:22:16;;;;;;;1999.90;999.90;;;;;;;16.59;40.78;101651.63;5001142;28;97374;-74
2021/08/14 01:24:45;;;;;;;1999.90;999.90;;;;;;;16.52;40.70;101653.38;4984581;28;96993;-74
2021/08/14 01:27:15;;;;;;;1999.90;999.90;;;;;;;16.43;40.57;101661.34;4986104;28;97251;-73
2021/08/14 01:29:43;;;;;;;1999.90;999.90;;;;;;;16.32;40.81;101651.34;4985990;28;98923;-73
2021/08/14 01:32:11;;;;;;;1999.90;999.90;;;;;;;16.26;41.08;101656.63;5001468;28;98696;-73
2021/08/14 01:34:41;;;;;;;1999.90;999.90;;;;;;;16.21;41.24;101645.84;4985203;28;97076;-74
2021/08/14 01:37:09;;;;;;;1999.90;999.90;;;;;;;16.18;41.03;101647.59;4985694;28;96775;-74
2021/08/14 01:39:38;;;;;;;1999.90;999.90;;;;;;;16.15;41.16;101650.22;4984596;28;98923;-73
2021/08/14 01:42:07;;;;;;;1999.90;999.90;;;;;;;16.15;41.31;101655.59;4985670;28;97779;-73
2021/08/14 01:44:37;;;;;;;1999.90;999.90;;;;;;;16.08;41.28;101650.19;4984403;28;97296;-73
2021/08/14 01:47:06;;;;;;;1999.90;999.90;;;;;;;16.08;41.18;101652.88;4984155;28;97433;-73
2021/08/14 01:49:33;;;;;;;1999.90;999.90;;;;;;;16.45;41.04;101650.59;4982872;28;98111;-73
2021/08/14 01:52:08;;;;;;;1999.90;999.90;;;;;;;16.00;41.88;101649.19;4983225;28;97639;-73
2021/08/14 01:54:36;;;;;;;1999.90;999.90;;;;;;;15.84;42.14;101649.81;4984245;28;97036;-73
2021/08/14 01:57:05;;;;;;;1999.90;999.90;;;;;;;15.76;41.97;101651.50;4984787;28;96974;-74
2021/08/14 01:59:33;;;;;;;1999.90;999.90;;;;;;;15.68;42.24;101654.97;4984177;28;99793;-74
2021/08/14 02:02:03;;;;;;;1999.90;999.90;;;;;;;15.60;42.52;101662.00;4981513;28;98583;-73
2021/08/14 02:04:32;;;;;;;1999.90;999.90;;;;;;;15.48;42.57;101656.47;4983613;28;98166;-74
2021/08/14 02:06:59;;;;;;;1999.90;999.90;;;;;;;15.42;42.34;101643.84;5001161;28;97770;-74
2021/08/14 02:09:28;;;;;;;1999.90;999.90;;;;;;;15.42;42.63;101649.22;4984160;28;100376;-74
2021/08/14 02:11:56;;;;;;;1999.90;999.90;;;;;;;15.41;42.41;101650.06;4966912;28;99193;-74
2021/08/14 02:14:23;;;;;;;1999.90;999.90;;;;;;;15.39;42.68;101659.91;5001429;28;96984;-73
2021/08/14 02:16:51;;;;;;;1999.90;999.90;;;;;;;15.38;42.69;101655.41;4986624;28;97216;-73
2021/08/14 02:19:20;;;;;;;1999.90;999.90;;;;;;;15.35;42.35;101652.69;4985778;28;96980;-74
2021/08/14 02:21:48;;;;;;;1999.90;999.90;;;;;;;15.33;42.71;101649.06;4984692;28;100378;-73
2021/08/14 02:24:15;;;;;;;1999.90;999.90;;;;;;;15.80;42.52;101647.97;4983621;28;97102;-74
2021/08/14 02:26:43;;;;;;;1999.90;999.90;;;;;;;15.52;42.66;101650.25;4987917;28;96889;-74
2021/08/14 02:29:11;;;;;;;1999.90;999.90;;;;;;;15.45;42.81;101648.38;4987779;28;98798;-74
2021/08/14 02:31:39;;;;;;;1999.90;999.90;;;;;;;15.45;42.80;101648.38;4988217;28;99333;-74
2021/08/14 02:34:06;;;;;;;1999.90;999.90;;;;;;;15.42;42.54;101651.00;4987174;28;97818;-74
2021/08/14 02:36:36;;;;;;;1999.90;999.90;;;;;;;15.40;42.89;101653.66;4989246;28;97937;-74
2021/08/14 02:39:04;;;;;;;1999.90;999.90;;;;;;;15.40;42.66;101655.44;4988562;28;98013;-74
2021/08/14 02:41:31;;;;;;;1999.90;999.90;;;;;;;15.35;42.83;101658.06;4988504;28;97149;-74
2021/08/14 02:43:59;;;;;;;1999.90;999.90;;;;;;;15.32;42.65;101660.66;4989115;28;97168;-73
2021/08/14 02:46:27;;;;;;;1999.90;999.90;;;;;;;15.29;42.84;101652.59;4988247;28;96914;-73
2021/08/14 02:48:55;;;;;;;1999.90;999.90;;;;;;;15.28;42.92;101648.06;4986468;28;98771;-73
2021/08/14 02:51:23;;;;;;;1999.90;999.90;;;;;;;15.30;43.24;101649.03;4970577;28;99545;-72
2021/08/14 02:53:52;;;;;;;1999.90;999.90;;;;;;;15.34;43.02;101650.00;4988131;28;97941;-72
2021/08/14 02:56:19;;;;;;;1999.90;999.90;;;;;;;15.36;42.57;101650.88;4987452;28;97552;-73
2021/08/14 02:58:47;;;;;;;1999.90;999.90;;;;;;;15.36;42.83;101649.13;4986158;28;98013;-72
2021/08/14 03:01:15;;;;;;;1999.90;999.90;;;;;;;15.36;43.13;101648.19;4986738;28;100621;-72
2021/08/14 03:03:43;;;;;;;1999.90;999.90;;;;;;;15.37;42.77;101655.38;4987315;28;97243;-73
2021/08/14 03:06:26;;;;;;;1999.90;999.90;;;;;;;15.35;42.93;101646.41;4987197;28;97517;-72
2021/08/14 03:08:55;;;;;;;1999.90;999.90;;;;;;;15.38;42.96;101646.44;4985618;28;99698;-72
2021/08/14 03:11:23;;;;;;;1999.90;999.90;;;;;;;15.38;42.59;101644.69;4987899;28;97665;-72
2021/08/14 03:13:51;;;;;;;1999.90;999.90;;;;;;;15.40;43.04;101650.06;4985714;28;96942;-73
2021/08/14 03:16:19;;;;;;;1999.90;999.90;;;;;;;15.40;42.73;101650.97;4986451;28;97065;-72
2021/08/14 03:18:47;;;;;;;1999.90;999.90;;;;;;;15.40;42.85;101653.66;4986811;28;97917;-72
2021/08/14 03:21:15;;;;;;;1999.90;999.90;;;;;;;15.41;42.94;101650.06;4987328;28;98515;-72
2021/08/14 03:23:42;;;;;;;1999.90;999.90;;;;;;;15.40;42.85;101645.59;4987245;28;98088;-72
2021/08/14 03:26:11;;;;;;;1999.90;999.90;;;;;;;15.42;42.68;101643.84;4970391;28;97468;-72
2021/08/14 03:28:39;;;;;;;1999.90;999.90;;;;;;;15.87;42.64;101641.81;4986114;28;98232;-72
2021/08/14 03:31:07;;;;;;;1999.90;999.90;;;;;;;15.64;42.66;101637.91;4970348;28;100296;-72
2021/08/14 03:33:34;;;;;;;1999.90;999.90;;;;;;;16.01;42.83;101650.97;4985679;28;96803;-72
2021/08/14 03:36:02;;;;;;;1999.90;999.90;;;;;;;15.73;42.98;101650.56;4988331;28;97016;-72
2021/08/14 03:38:30;;;;;;;1999.90;999.90;;;;;;;15.60;43.06;101645.88;4987383;28;97633;-73
2021/08/14 03:40:58;;;;;;;1999.90;999.90;;;;;;;15.50;43.03;101647.53;4987895;28;98324;-73
2021/08/14 03:43:27;;;;;;;1999.90;999.90;;;;;;;15.45;43.43;101643.88;4987452;28;96910;-73
2021/08/14 03:45:54;;;;;;;1999.90;999.90;;;;;;;15.41;43.49;101652.75;4986930;28;96949;-72
2021/08/14 03:48:22;;;;;;;1999.90;999.90;;;;;;;15.37;43.36;101650.94;4986102;28;99878;-73
2021/08/14 03:50:50;;;;;;;1999.90;999.90;;;;;;;15.35;43.07;101650.00;4985289;28;100159;-73
2021/08/14 03:53:18;;;;;;;1999.90;999.90;;;;;;;15.32;43.20;101651.75;4985775;28;97073;-73
2021/08/14 03:55:46;;;;;;;1999.90;999.90;;;;;;;15.29;43.52;101652.59;4988222;28;97241;-73
2021/08/14 03:58:13;;;;;;;1999.90;999.90;;;;;;;15.26;43.37;101655.19;4985262;28;100876;-73
2021/08/14 04:00:42;;;;;;;1999.90;999.90;;;;;;;15.25;43.42;101648.00;4985130;28;98102;-72
2021/08/14 04:03:10;;;;;;;1999.90;999.90;;;;;;;15.24;43.69;101654.25;4979223;28;97660;-73
2021/08/14 04:05:38;;;;;;;1999.90;999.90;;;;;;;15.23;43.62;101652.44;4984009;28;97453;-73
2021/08/14 04:08:06;;;;;;;1999.90;999.90;;;;;;;15.21;43.29;101653.31;4985475;28;98253;-73
2021/08/14 04:10:49;;;;;;;1999.90;999.90;;;;;;;15.17;43.63;101658.59;4985157;28;97860;-73
2021/08/14 04:13:29;;;;;;;1999.90;999.90;;;;;;;15.16;43.42;101642.50;4970976;28;98067;-73
2021/08/14 04:16:13;;;;;;;1999.90;999.90;;;;;;;15.16;43.61;101650.53;4987006;28;97348;-73
2021/08/14 04:18:56;;;;;;;1999.90;999.90;;;;;;;15.14;43.36;101650.53;4986867;28;98061;-73
2021/08/14 04:21:24;;;;;;;1999.90;999.90;;;;;;;15.14;43.36;101649.63;4985711;28;100637;-73
2021/08/14 04:23:51;;;;;;;1999.90;999.90;;;;;;;15.10;43.83;101646.00;4986198;28;96947;-73
2021/08/14 04:26:19;;;;;;;1999.90;999.90;;;;;;;15.05;43.54;101647.69;4985889;28;97429;-73
2021/08/14 04:28:47;;;;;;;1999.90;999.90;;;;;;;15.04;43.61;101645.00;4984231;28;99299;-73
2021/08/14 04:31:16;;;;;;;1999.90;999.90;;;;;;;15.02;43.70;101646.75;4987308;28;97640;-72
2021/08/14 04:33:43;;;;;;;1999.90;999.90;;;;;;;15.01;43.67;101650.28;4985723;28;97193;-73
2021/08/14 04:36:11;;;;;;;1999.90;999.90;;;;;;;15.00;43.69;101645.81;4985420;28;97734;-72
2021/08/14 04:38:39;;;;;;;1999.90;999.90;;;;;;;14.95;44.00;101645.75;4986402;28;97162;-73
2021/08/14 04:41:07;;;;;;;1999.90;999.90;;;;;;;14.91;43.85;101649.25;4987474;28;96923;-72
2021/08/14 04:43:34;;;;;;;1999.90;999.90;;;;;;;14.87;44.14;101654.53;5002515;28;96879;-72
2021/08/14 04:46:02;;;;;;;1999.90;999.90;;;;;;;14.83;43.96;101650.88;4985722;28;96999;-72
2021/08/14 04:48:31;;;;;;;1999.90;999.90;;;;;;;14.80;44.22;101644.56;4986204;28;97894;-72
2021/08/14 04:50:59;;;;;;;1999.90;999.90;;;;;;;14.76;44.29;101648.97;4986073;28;97719;-72
2021/08/14 04:53:27;;;;;;;1999.90;999.90;;;;;;;14.72;44.05;101646.19;4969358;28;97324;-72
2021/08/14 04:55:55;;;;;;;1999.90;999.90;;;;;;;14.69;44.33;101646.16;4984695;28;96891;-76
2021/08/14 04:58:23;;;;;;;1999.90;999.90;;;;;;;14.67;44.35;101654.19;4985274;28;99228;-76
2021/08/14 05:00:50;;;;;;;1999.90;999.90;;;;;;;14.63;44.43;101652.31;4985364;28;99680;-76
2021/08/14 05:03:23;;;;;;;1999.90;999.90;;;;;;;14.61;44.25;101648.69;4986165;28;96854;-76
2021/08/14 05:05:52;;;;;;;1999.90;999.90;;;;;;;14.57;44.33;101645.94;4987988;28;96911;-75
2021/08/14 05:08:20;;;;;;;1999.90;999.90;;;;;;;14.53;44.47;101647.63;4985792;28;98004;-74
2021/08/14 05:10:48;;;;;;;1999.90;999.90;;;;;;;14.98;44.69;101647.56;4981476;28;97706;-73
2021/08/14 05:13:16;;;;;;;1999.90;999.90;;;;;;;14.73;44.83;101651.63;4984142;28;97419;-73
2021/08/14 05:15:44;;;;;;;1999.90;999.90;;;;;;;14.68;45.08;101655.97;4983471;28;97600;-73
2021/08/14 05:18:12;;;;;;;1999.90;999.90;;;;;;;14.62;45.10;101641.56;4982115;28;98995;-73
2021/08/14 05:20:40;;;;;;;1999.90;999.90;;;;;;;14.57;45.20;101640.59;4983644;28;99245;-73
2021/08/14 05:23:09;;;;;;;1999.90;999.90;;;;;;;14.50;44.98;101658.28;4983025;28;96891;-73
2021/08/14 05:25:36;;;;;;;1999.90;999.90;;;;;;;14.46;44.99;101656.44;4983838;28;97170;-73
2021/08/14 05:28:04;;;;;;;1999.90;999.90;;;;;;;14.41;44.88;101667.94;4999570;28;98963;-73
2021/08/14 05:30:32;;;;;;;1999.90;999.90;;;;;;;14.36;44.93;101665.16;4986612;28;98890;-73
2021/08/14 05:33:01;;;;;;;1999.90;999.90;;;;;;;14.33;44.91;101650.81;4983846;28;97977;-73
2021/08/14 05:35:29;;;;;;;1999.90;999.90;;;;;;;14.30;44.79;101656.97;4986889;28;98294;-73
2021/08/14 05:37:59;;;;;;;1999.90;999.90;;;;;;;14.28;45.08;101666.75;4985820;28;97866;-73
2021/08/14 05:40:29;;;;;;;1999.90;999.90;;;;;;;14.26;44.81;101667.63;4984237;28;97986;-73
2021/08/14 05:42:56;;;;;;;1999.90;999.90;;;;;;;14.65;44.64;101669.31;4982530;28;97202;-73
2021/08/14 05:45:25;;;;;;;1999.90;999.90;;;;;;;14.86;44.14;101663.44;4982664;28;97188;-73
2021/08/14 05:47:53;;;;;;;1999.90;999.90;;;;;;;14.98;44.20;101671.69;4982680;28;99826;-73
2021/08/14 05:50:21;;;;;;;1999.90;999.90;;;;;;;15.05;44.13;101673.59;4983375;28;97589;-73
2021/08/14 05:52:49;;;;;;;1999.90;999.90;;;;;;;15.12;44.02;101671.03;4984064;28;97602;-73
2021/08/14 05:55:17;;;;;;;1999.90;999.90;;;;;;;15.20;44.12;101668.50;4983138;28;96848;-74
2021/08/14 05:57:46;;;;;;;1999.90;999.90;;;;;;;15.30;43.99;101672.28;4978809;28;99648;-73
2021/08/14 06:00:15;;;;;;;1999.90;999.90;;;;;;;15.38;44.08;101665.22;4982248;28;99292;-73
2021/08/14 06:02:42;;;;;;;1999.90;999.90;;;;;;;15.47;44.16;101668.97;5002085;28;97788;-73
2021/08/14 06:05:11;;;;;;;1999.90;999.90;;;;;;;15.57;43.62;101678.97;4988329;28;99384;-73
2021/08/14 06:07:38;;;;;;;1999.90;999.90;;;;;;;15.65;43.82;101674.59;4984971;28;99523;-73
2021/08/14 06:10:07;;;;;;;1999.90;999.90;;;;;;;15.70;43.01;101672.88;4986383;28;97360;-73
2021/08/14 06:12:35;;;;;;;1999.90;999.90;;;;;;;15.72;42.83;101673.78;4987325;28;97097;-73
2021/08/14 06:15:04;;;;;;;1999.90;999.90;;;;;;;15.72;42.99;101667.56;4986221;28;96981;-73
2021/08/14 06:17:32;;;;;;;1999.90;999.90;;;;;;;15.73;43.23;101667.56;4985566;28;100564;-73
2021/08/14 06:20:00;;;;;;;1999.90;999.90;;;;;;;15.77;43.23;101666.75;4985596;28;97731;-73
2021/08/14 06:22:28;;;;;;;1999.90;999.90;;;;;;;15.84;43.08;101671.31;4984679;28;97727;-73
2021/08/14 06:24:55;;;;;;;1999.90;999.90;;;;;;;15.93;43.54;101673.19;4985996;28;97320;-73
2021/08/14 06:27:23;;;;;;;1999.90;999.90;;;;;;;16.00;43.43;101672.38;4983685;28;99169;-73
2021/08/14 06:29:51;;;;;;;1999.90;999.90;;;;;;;16.08;43.75;101671.66;4984414;28;99501;-72
2021/08/14 06:32:20;;;;;;;1999.90;999.90;;;;;;;16.14;43.44;101667.25;4984053;28;97399;-73
2021/08/14 06:34:48;;;;;;;1999.90;999.90;;;;;;;16.22;43.48;101662.84;4985555;28;97029;-73
2021/08/14 06:37:16;;;;;;;1999.90;999.90;;;;;;;16.30;42.90;101671.91;4986038;28;97635;-73
2021/08/14 06:39:43;;;;;;;1999.90;999.90;;;;;;;16.32;42.91;101670.16;4986074;28;100777;-72
2021/08/14 06:42:11;;;;;;;1999.90;999.90;;;;;;;16.30;42.44;101670.13;4986429;28;97136;-73
2021/08/14 06:44:39;;;;;;;1999.90;999.90;;;;;;;16.29;42.09;101664.75;4984614;28;97834;-73
2021/08/14 06:47:07;;;;;;;1999.90;999.90;;;;;;;16.30;42.30;101664.75;4985452;28;97703;-73
2021/08/14 06:49:36;;;;;;;1999.90;999.90;;;;;;;16.31;42.00;101658.50;5000382;28;98126;-71
2021/08/14 06:52:04;;;;;;;1999.90;999.90;;;;;;;16.28;41.87;101655.78;4985114;28;97327;-74
2021/08/14 06:54:32;;;;;;;1999.90;999.90;;;;;;;16.25;41.58;101662.91;4986374;28;97168;-72
2021/08/14 06:57:00;;;;;;;1999.90;999.90;;;;;;;16.23;41.40;101662.91;4982427;28;97046;-72
2021/08/14 06:59:27;;;;;;;1999.90;999.90;;;;;;;16.24;41.17;101669.16;4984415;28;99432;-73
2021/08/14 07:01:56;;;;;;;1999.90;999.90;;;;;;;16.25;41.30;101661.09;4977502;28;97971;-72
2021/08/14 07:04:24;;;;;;;1999.90;999.90;;;;;;;16.28;41.11;101660.25;4983024;28;97408;-73
2021/08/14 07:06:53;;;;;;;1999.90;999.90;;;;;;;16.33;41.02;101666.56;4983219;28;97909;-72
2021/08/14 07:09:21;;;;;;;1999.90;999.90;;;;;;;16.37;41.02;101665.72;4984501;28;99486;-73
2021/08/14 07:11:49;;;;;;;1999.90;999.90;;;;;;;16.40;41.16;101660.38;4984308;28;97943;-72
2021/08/14 07:14:17;;;;;;;1999.90;999.90;;;;;;;16.42;40.85;101666.66;4990045;28;98310;-72
2021/08/14 07:16:45;;;;;;;1999.90;999.90;;;;;;;16.43;40.33;101673.88;4980754;28;100502;-71
2021/08/14 07:19:13;;;;;;;1999.90;999.90;;;;;;;15.99;41.16;101665.25;4986840;28;98144;-74
2021/08/14 07:21:40;;;;;;;1999.90;999.90;;;;;;;16.25;39.98;101660.22;4981557;28;98033;-73
2021/08/14 07:24:12;;;;;;;1999.90;999.90;;;;;;;16.29;39.48;101654.88;4969119;28;97012;-73
2021/08/14 07:26:39;;;;;;;1999.90;999.90;;;;;;;16.31;39.38;101652.22;4983587;28;99310;-72
2021/08/14 07:29:07;;;;;;;1999.90;999.90;;;;;;;15.90;40.41;101649.88;4985185;28;98079;-72
2021/08/14 07:31:35;;;;;;;1999.90;999.90;;;;;;;15.83;40.80;101653.38;4984774;28;97591;-71
2021/08/14 07:34:03;;;;;;;1999.90;999.90;;;;;;;16.18;39.55;101663.72;4983266;28;98422;-72
2021/08/14 07:36:30;;;;;;;1999.90;999.90;;;;;;;15.89;40.51;101655.25;4979955;28;100927;-72
2021/08/14 07:38:58;;;;;;;1999.90;999.90;;;;;;;15.78;40.70;101655.09;4998310;28;100366;-72
2021/08/14 07:41:27;;;;;;;1999.90;999.90;;;;;;;15.72;41.07;101654.13;4984638;28;97147;-72
2021/08/14 07:43:55;;;;;;;1999.90;999.90;;;;;;;16.05;39.93;101651.91;4988986;28;97427;-72
2021/08/14 07:46:23;;;;;;;1999.90;999.90;;;;;;;15.84;40.97;101652.50;4985516;28;99220;-73
2021/08/14 07:48:51;;;;;;;1999.90;999.90;;;;;;;16.16;39.73;101646.69;4967140;28;99264;-73
2021/08/14 07:51:19;;;;;;;1999.90;999.90;;;;;;;16.33;39.35;101645.06;4983666;28;96949;-72
2021/08/14 07:53:46;;;;;;;1999.90;999.90;;;;;;;16.46;39.38;101641.66;4984027;28;97092;-72
2021/08/14 07:56:14;;;;;;;1999.90;999.90;;;;;;;16.56;38.48;101638.19;4981570;28;99173;-73
2021/08/14 07:58:43;;;;;;;1999.90;999.90;;;;;;;16.25;39.08;101638.72;4984440;28;99317;-71
2021/08/14 08:01:11;;;;;;;1999.90;999.90;;;;;;;16.51;38.36;101631.84;4983449;28;97052;-73
2021/08/14 08:03:39;;;;;;;1999.90;999.90;;;;;;;16.59;38.28;101622.06;4985427;28;97321;-73
2021/08/14 08:06:07;;;;;;;1999.90;999.90;;;;;;;16.32;38.71;101629.84;4984081;28;98644;-73
2021/08/14 08:08:35;;;;;;;1999.90;999.90;;;;;;;16.59;38.19;101628.38;4999832;28;97629;-72
2021/08/14 08:11:03;;;;;;;1999.90;999.90;;;;;;;16.37;38.71;101628.13;4984619;28;97412;-72
2021/08/14 08:13:31;;;;;;;1999.90;999.90;;;;;;;16.31;39.14;101633.41;4982143;28;98197;-72
2021/08/14 08:16:00;;;;;;;1999.90;999.90;;;;;;;16.31;39.24;101628.03;5002166;28;97838;-73
2021/08/14 08:18:28;;;;;;;1999.90;999.90;;;;;;;16.33;39.13;101618.22;4984764;28;99259;-73
2021/08/14 08:20:56;;;;;;;1999.90;999.90;;;;;;;16.33;39.13;101624.50;4985182;28;97925;-73
2021/08/14 08:23:24;;;;;;;1999.90;999.90;;;;;;;16.37;39.16;101629.03;4984015;28;97185;-75
2021/08/14 08:25:51;;;;;;;1999.90;999.90;;;;;;;16.28;39.06;101622.63;4986147;28;97116;-74
2021/08/14 08:28:21;;;;;;;1999.90;999.90;;;;;;;16.28;39.54;101623.56;4968916;28;100511;-74
2021/08/14 08:30:49;;;;;;;1999.90;999.90;;;;;;;16.60;38.66;101613.13;4983395;28;97412;-74
2021/08/14 08:33:18;;;;;;;1999.90;999.90;;;;;;;16.45;39.07;101618.38;4983867;28;97860;-74
2021/08/14 08:35:46;;;;;;;1999.90;999.90;;;;;;;16.42;39.22;101616.53;4986384;28;97974;-74
2021/08/14 08:38:13;;;;;;;1999.90;999.90;;;;;;;16.41;39.10;101614.75;4984191;28;99171;-74
2021/08/14 08:40:42;;;;;;;1999.90;999.90;;;;;;;16.41;39.37;101608.47;4985881;28;97528;-74
2021/08/14 08:43:10;;;;;;;1999.90;999.90;;;;;;;16.43;39.25;101609.38;4984290;28;97301;-73
2021/08/14 08:45:38;;;;;;;1999.90;999.90;;;;;;;16.46;39.29;101606.72;4985449;28;98022;-73
2021/08/14 08:48:08;;;;;;;1999.90;999.90;;;;;;;16.49;39.00;101609.44;4981234;28;99267;-73
2021/08/14 08:50:37;;;;;;;1999.90;999.90;;;;;;;16.52;39.22;101604.09;4985528;28;97595;-73
2021/08/14 08:53:05;;;;;;;1999.90;999.90;;;;;;;16.55;39.13;101596.97;4967554;28;96960;-72
2021/08/14 08:55:33;;;;;;;1999.90;999.90;;;;;;;16.58;38.82;101604.16;4984453;28;97714;-74
2021/08/14 08:58:01;;;;;;;1999.90;999.90;;;;;;;16.61;38.97;101605.09;4984547;28;100272;-75
2021/08/14 09:00:29;;;;;;;1999.90;999.90;;;;;;;16.61;39.06;101598.81;5001289;28;97380;-73
2021/08/14 09:03:11;;;;;;;1999.90;999.90;;;;;;;16.62;38.89;101601.50;4982319;28;97308;-73
2021/08/14 09:05:49;;;;;;;1999.90;999.90;;;;;;;16.64;38.91;101596.13;5001368;28;99391;-75
2021/08/14 09:08:17;;;;;;;1999.90;999.90;;;;;;;16.71;38.87;101598.94;4984140;28;97760;-73
2021/08/14 09:10:45;;;;;;;1999.90;999.90;;;;;;;16.77;39.05;101595.41;5000405;28;97625;-73
2021/08/14 09:13:15;;;;;;;1999.90;999.90;;;;;;;16.85;39.12;101593.69;4965715;28;96966;-72
2021/08/14 09:15:43;;;;;;;1999.90;999.90;;;;;;;16.93;38.83;101589.25;4981101;28;100563;-73
2021/08/14 09:18:12;;;;;;;1999.90;999.90;;;;;;;16.99;38.76;101598.28;4982562;28;99177;-73
2021/08/14 09:20:53;;;;;;;1999.90;999.90;;;;;;;17.02;38.07;101583.94;4981822;28;98343;-73
2021/08/14 09:23:22;;;;;;;1999.90;999.90;;;;;;;17.04;38.63;101584.88;4977446;28;97664;-71
2021/08/14 09:25:50;;;;;;;1999.90;999.90;;;;;;;17.09;38.58;101584.00;4977653;28;97979;-73
2021/08/14 09:28:20;;;;;;;1999.90;999.90;;;;;;;17.17;38.53;101577.78;4983864;28;100029;-73
2021/08/14 09:30:53;;;;;;;1999.90;999.90;;;;;;;17.23;37.73;101583.22;4985259;28;97794;-73
2021/08/14 09:33:23;;;;;;;1999.90;999.90;;;;;;;17.28;38.21;101574.28;4986054;28;97020;-71
2021/08/14 09:35:57;;;;;;;1999.90;999.90;;;;;;;17.32;37.52;101570.72;4985534;28;100391;-71
2021/08/14 09:38:38;;;;;;;1999.90;999.90;;;;;;;17.37;37.50;101562.66;4983353;28;100624;-74
2021/08/14 09:41:12;;;;;;;1999.90;999.90;;;;;;;17.43;37.71;101555.56;4984911;28;96917;-73
2021/08/14 09:43:41;;;;;;;1999.90;999.90;;;;;;;17.49;37.85;101565.47;4983122;28;97890;-72
2021/08/14 09:46:09;;;;;;;1999.90;999.90;;;;;;;17.56;37.57;101554.75;4965637;28;99578;-72
2021/08/14 09:48:37;;;;;;;1999.90;999.90;;;;;;;17.58;37.48;101552.06;4981602;28;101083;-72
2021/08/14 09:51:07;;;;;;;1999.90;999.90;;;;;;;17.61;37.38;101550.28;4981927;28;96837;-71
2021/08/14 09:53:34;;;;;;;1999.90;999.90;;;;;;;17.66;37.33;101558.34;4983316;28;96899;-73
2021/08/14 09:56:07;;;;;;;1999.90;999.90;;;;;;;17.69;36.98;101547.63;4981730;28;99676;-74
2021/08/14 09:58:36;;;;;;;1999.90;999.90;;;;;;;17.74;37.37;101543.16;4981461;28;100379;-74
2021/08/14 10:01:05;;;;;;;1999.90;999.90;;;;;;;17.78;37.19;101537.75;4985671;28;99093;-73
2021/08/14 10:03:33;;;;;;;1999.90;999.90;;;;;;;17.85;37.25;101530.63;4999187;28;97043;-74
2021/08/14 10:06:03;;;;;;;1999.90;999.90;;;;;;;17.90;37.17;101531.53;4998091;28;97778;-72
2021/08/14 10:08:32;;;;;;;1999.90;999.90;;;;;;;18.22;36.11;101527.16;4978551;28;98980;-74
2021/08/14 10:11:00;;;;;;;1999.90;999.90;;;;;;;18.42;35.64;101521.78;4979687;28;97295;-74
2021/08/14 10:13:29;;;;;;;1999.90;999.90;;;;;;;18.59;35.60;101525.38;4980279;28;97568;-73
2021/08/14 10:15:57;;;;;;;1999.90;999.90;;;;;;;18.72;35.02;101529.91;4983025;28;99345;-73
2021/08/14 10:18:26;;;;;;;1999.90;999.90;;;;;;;18.86;34.91;101517.31;4981485;28;97757;-74
2021/08/14 10:20:54;;;;;;;1999.90;999.90;;;;;;;18.96;34.10;101513.69;4981802;28;96904;-73
2021/08/14 10:23:23;;;;;;;1999.90;999.90;;;;;;;19.04;33.67;101515.47;4980755;28;98069;-75
2021/08/14 10:26:00;;;;;;;1999.90;999.90;;;;;;;19.15;33.47;101506.47;4980656;28;98587;-73
2021/08/14 10:28:48;;;;;;;1999.90;999.90;;;;;;;19.24;33.69;101510.03;4977060;28;99234;-74
2021/08/14 10:31:47;;;;;;;1999.90;999.90;;;;;;;19.34;33.46;101508.22;4982324;28;97198;-73
2021/08/14 10:34:30;;;;;;;1999.90;999.90;;;;;;;19.43;32.89;101518.97;4980594;28;97449;-75
2021/08/14 10:36:58;;;;;;;1999.90;999.90;;;;;;;19.48;32.91;101506.38;4982083;28;97704;-77
2021/08/14 10:39:27;;;;;;;1999.90;999.90;;;;;;;19.53;32.88;101500.06;4979281;28;98497;-75
2021/08/14 10:41:57;;;;;;;1999.90;999.90;;;;;;;19.58;32.81;101495.53;4981200;28;97245;-74
2021/08/14 10:44:46;;;;;;;1999.90;999.90;;;;;;;19.66;32.20;101490.97;4979875;28;97477;-73
2021/08/14 10:47:41;;;;;;;1999.90;999.90;;;;;;;19.70;32.14;101481.09;4997523;28;98508;-73
2021/08/14 10:50:10;;;;;;;1999.90;999.90;;;;;;;19.72;32.34;101479.25;4979048;28;98405;-73
2021/08/14 10:52:40;;;;;;;1999.90;999.90;;;;;;;19.48;32.66;101474.88;4984846;28;97199;-73
2021/08/14 10:55:14;;;;;;;1999.90;999.90;;;;;;;19.40;33.26;101468.63;4980768;28;97010;-74